Meteorología y climatología de Navarra
Datos de la estación - Meteo Navarra

Estación de Getadar GN

Altitud 710 m.


Datos desde el 10/10/2019 hasta el 11/10/2019 en horario solar
Los datos son PROVISIONALES

Anterior Página 1 de 1 Siguiente Descargar: Formato para Excel 2000 o superior   Formato csv   Formato para OpenOffice Calc
Fecha Temperatura Humedad relativa Radiación global Insolación Precipitación Vel. viento 10 m Vel. viento 10 m Dir. viento 10 m
ºC % W/m² s l/m² m/s km/h º
10/10/2019 0:00 9.4 88 0.0 0 0.0 0.8 2.8 248
10/10/2019 0:10 9.5 87 0.0 0 0.0 1.2 4.2 283
10/10/2019 0:20 9.6 86 0.0 0 0.0 1.0 3.4 300
10/10/2019 0:30 9.6 86 0.0 0 0.0 0.4 1.4 196
10/10/2019 0:40 9.3 87 0.0 0 0.0 0.7 2.6 14
10/10/2019 0:50 9.1 88 0.0 0 0.0 1.9 6.8 333
10/10/2019 1:00 8.8 89 0.0 0 0.0 0.5 1.6 16
10/10/2019 1:10 8.7 91 0.0 0 0.0 0.8 2.7 359
10/10/2019 1:20 8.5 91 0.0 0 0.0 1.1 4.0 355
10/10/2019 1:30 8.4 92 0.0 0 0.0 1.5 5.5 351
10/10/2019 1:40 8.2 93 0.0 0 0.0 1.7 6.2 351
10/10/2019 1:50 8.2 93 0.0 0 0.0 2.3 8.2 340
10/10/2019 2:00 8.4 92 0.0 0 0.0 3.0 10.8 339
10/10/2019 2:10 8.8 90 0.0 0 0.0 3.2 11.4 334
10/10/2019 2:20 9.3 88 0.0 0 0.0 2.9 10.4 340
10/10/2019 2:30 9.6 86 0.0 0 0.0 2.4 8.6 353
10/10/2019 2:40 9.6 86 0.0 0 0.0 2.6 9.4 357
10/10/2019 2:50 9.4 87 0.0 0 0.0 1.9 6.8 350
10/10/2019 3:00 9.3 88 0.0 0 0.0 0.9 3.1 302
10/10/2019 3:10 9.1 88 0.0 0 0.0 2.0 7.2 339
10/10/2019 3:20 9.0 88 0.0 0 0.0 3.4 12.2 343
10/10/2019 3:30 9.1 88 0.0 0 0.0 3.2 11.5 343
10/10/2019 3:40 9.0 88 0.0 0 0.0 3.3 11.7 341
10/10/2019 3:50 9.2 87 0.0 0 0.0 1.7 6.1 353
10/10/2019 4:00 9.2 87 0.0 0 0.0 0.6 2.1 267
10/10/2019 4:10 9.1 86 0.0 0 0.0 1.9 6.9 328
10/10/2019 4:20 9.2 86 0.0 0 0.0 2.3 8.4 346
10/10/2019 4:30 9.2 87 0.0 0 0.0 3.0 10.7 0
10/10/2019 4:40 9.2 86 0.0 0 0.0 3.0 10.8 351
10/10/2019 4:50 9.1 86 0.0 0 0.0 2.5 9.1 340
10/10/2019 5:00 9.1 86 0.0 0 0.0 2.9 10.4 350
10/10/2019 5:10 9.2 85 0.0 0 0.0 2.9 10.5 356
10/10/2019 5:20 9.3 84 0.0 0 0.0 2.8 10.1 339
10/10/2019 5:30 9.2 84 0.0 0 0.0 2.1 7.6 336
10/10/2019 5:40 9.2 84 0.0 0 0.0 2.5 9.0 338
10/10/2019 5:50 9.0 85 0.0 0 0.0 1.6 5.7 326
10/10/2019 6:00 8.9 84 0.0 0 0.0 2.4 8.5 340
10/10/2019 6:10 8.9 84 0.0 0 0.0 2.7 9.8 356
10/10/2019 6:20 9.1 83 8.9 0 0.0 3.7 13.1 355
10/10/2019 6:30 9.2 81 20.7 0 0.0 3.1 11.2 3
10/10/2019 6:40 9.5 79 32.4 206 0.0 3.7 13.2 356
10/10/2019 6:50 9.6 79 75.1 600 0.0 3.3 11.8 348
10/10/2019 7:00 10.0 76 101.9 600 0.0 2.6 9.4 344
10/10/2019 7:10 10.2 75 130.3 600 0.0 2.3 8.2 339
10/10/2019 7:20 10.6 73 160.0 600 0.0 2.1 7.4 323
10/10/2019 7:30 10.7 74 188.9 600 0.0 1.2 4.4 347
10/10/2019 7:40 10.8 74 219.5 600 0.0 1.9 6.8 350
10/10/2019 7:50 11.4 72 248.0 600 0.0 1.1 3.9 265
10/10/2019 8:00 11.7 70 276.3 600 0.0 1.0 3.5 282
10/10/2019 8:10 12.1 69 306.3 600 0.0 2.0 7.2 34
10/10/2019 8:20 12.3 69 336.8 600 0.0 2.3 8.1 48
10/10/2019 8:30 12.6 68 365.0 600 0.0 1.4 5.0 8
10/10/2019 8:40 13.2 66 393.2 600 0.0 1.4 4.9 22
10/10/2019 8:50 13.5 64 420.6 600 0.0 1.4 5.1 340
10/10/2019 9:00 13.8 63 446.4 600 0.0 1.5 5.5 10
10/10/2019 9:10 14.0 63 469.1 600 0.0 0.6 2.3 128
10/10/2019 9:20 13.9 66 491.9 600 0.0 1.0 3.7 133
10/10/2019 9:30 14.2 65 513.7 600 0.0 0.9 3.1 130
10/10/2019 9:40 14.3 64 535.5 600 0.0 1.3 4.7 154
10/10/2019 9:50 14.8 63 555.1 600 0.0 0.5 1.8 123
10/10/2019 10:00 15.2 62 572.9 600 0.0 1.0 3.6 138
10/10/2019 10:10 16.0 58 589.1 600 0.0 0.6 2.1 179
10/10/2019 10:20 15.6 58 606.5 600 0.0 1.1 4.0 333
10/10/2019 10:30 16.0 56 621.6 600 0.0 1.5 5.3 360
10/10/2019 10:40 16.3 55 634.5 600 0.0 1.0 3.7 350
10/10/2019 10:50 17.2 52 644.6 600 0.0 0.6 2.2 98
10/10/2019 11:00 17.3 50 653.9 600 0.0 0.8 3.0 333
10/10/2019 11:10 17.0 50 663.5 600 0.0 1.6 5.6 318
10/10/2019 11:20 17.2 50 672.0 600 0.0 0.4 1.5 259
10/10/2019 11:30 17.9 47 675.6 600 0.0 0.9 3.2 1
10/10/2019 11:40 17.9 47 680.5 600 0.0 0.8 2.9 351
10/10/2019 11:50 18.5 45 682.6 600 0.0 0.8 2.9 269
10/10/2019 12:00 18.3 45 684.0 600 0.0 1.4 5.0 219
10/10/2019 12:10 18.9 45 680.3 600 0.0 0.5 1.6 168
10/10/2019 12:20 19.9 45 675.2 600 0.0 0.4 1.4 211
10/10/2019 12:30 19.6 46 672.0 600 0.0 1.4 4.9 134
10/10/2019 12:40 19.0 47 667.6 600 0.0 1.3 4.8 174
10/10/2019 12:50 19.2 46 660.2 600 0.0 1.6 5.8 142
10/10/2019 13:00 18.8 45 649.0 600 0.0 1.0 3.4 192
10/10/2019 13:10 19.5 44 637.3 600 0.0 0.9 3.3 84
10/10/2019 13:20 20.0 41 624.9 600 0.0 0.4 1.4 118
10/10/2019 13:30 20.6 40 610.0 600 0.0 0.5 1.9 7
10/10/2019 13:40 20.3 42 595.6 600 0.0 1.2 4.5 127
10/10/2019 13:50 20.4 43 579.7 600 0.0 1.0 3.6 160
10/10/2019 14:00 20.1 43 558.0 600 0.0 1.4 4.9 198
10/10/2019 14:10 20.0 44 542.5 600 0.0 1.4 4.9 138
10/10/2019 14:20 19.8 44 522.7 600 0.0 1.3 4.7 163
10/10/2019 14:30 20.2 43 490.4 600 0.0 1.0 3.5 91
10/10/2019 14:40 20.6 42 469.7 600 0.0 1.0 3.5 137
10/10/2019 14:50 20.2 43 448.9 600 0.0 1.1 3.9 156
10/10/2019 15:00 20.4 43 425.8 600 0.0 1.1 3.8 163
10/10/2019 15:10 20.1 43 398.8 600 0.0 1.2 4.4 138
10/10/2019 15:20 20.4 43 369.1 600 0.0 0.6 2.1 124
10/10/2019 15:30 20.5 42 340.3 600 0.0 0.8 2.9 162
10/10/2019 15:40 20.4 42 310.0 600 0.0 0.4 1.3 175
10/10/2019 15:50 20.2 42 281.5 600 0.0 1.0 3.5 154
10/10/2019 16:00 20.4 42 252.0 600 0.0 0.2 0.6 129
10/10/2019 16:10 20.1 42 222.8 600 0.0 0.7 2.3 156
10/10/2019 16:20 19.8 43 193.3 600 0.0 0.8 3.0 133
10/10/2019 16:30 19.8 43 163.6 600 0.0 0.7 2.4 132
10/10/2019 16:40 19.3 43 134.5 600 0.0 0.7 2.6 143
10/10/2019 16:50 19.0 44 105.0 600 0.0 0.6 2.0 154
10/10/2019 17:00 18.5 45 79.0 600 0.0 0.6 2.3 155
10/10/2019 17:10 17.9 46 39.3 286 0.0 0.7 2.4 216
10/10/2019 17:20 17.4 47 20.8 0 0.0 0.2 0.8 210
10/10/2019 17:30 16.8 50 7.0 0 0.0 0.0 0.0 333
10/10/2019 17:40 15.6 56 0.0 0 0.0 1.5 5.5 12
10/10/2019 17:50 14.7 60 0.0 0 0.0 1.7 5.9 2
10/10/2019 18:00 14.0 62 0.0 0 0.0 1.6 5.9 3
10/10/2019 18:10 13.6 63 0.0 0 0.0 1.8 6.6 6
10/10/2019 18:20 13.2 64 0.0 0 0.0 1.9 6.7 2
10/10/2019 18:30 12.8 64 0.0 0 0.0 1.8 6.4 359
10/10/2019 18:40 12.5 65 0.0 0 0.0 1.9 6.9 358
10/10/2019 18:50 12.3 65 0.0 0 0.0 2.0 7.1 1
10/10/2019 19:00 12.3 65 0.0 0 0.0 1.9 6.7 6
10/10/2019 19:10 12.1 66 0.0 0 0.0 1.9 6.9 360
10/10/2019 19:20 11.8 67 0.0 0 0.0 1.8 6.6 359
10/10/2019 19:30 12.0 65 0.0 0 0.0 1.8 6.6 356
10/10/2019 19:40 12.0 65 0.0 0 0.0 1.7 6.2 360
10/10/2019 19:50 11.8 66 0.0 0 0.0 1.4 5.1 6
10/10/2019 20:00 11.5 67 0.0 0 0.0 1.4 5.1 9
10/10/2019 20:10 11.5 67 0.0 0 0.0 1.1 4.1 17
10/10/2019 20:20 11.4 67 0.0 0 0.0 1.7 6.0 9
10/10/2019 20:30 11.4 67 0.0 0 0.0 1.8 6.5 12
10/10/2019 20:40 11.2 68 0.0 0 0.0 1.8 6.4 360
10/10/2019 20:50 11.1 68 0.0 0 0.0 1.8 6.4 349
10/10/2019 21:00 11.4 66 0.0 0 0.0 1.8 6.3 356
10/10/2019 21:10 11.2 67 0.0 0 0.0 1.8 6.4 358
10/10/2019 21:20 11.2 67 0.0 0 0.0 1.5 5.4 4
10/10/2019 21:30 11.2 67 0.0 0 0.0 1.0 3.7 18
10/10/2019 21:40 11.2 67 0.0 0 0.0 0.2 0.9 54
10/10/2019 21:50 11.3 66 0.0 0 0.0 0.3 1.0 191
10/10/2019 22:00 11.2 66 0.0 0 0.0 0.1 0.3 160
10/10/2019 22:10 11.8 64 0.0 0 0.0 0.1 0.2 173
10/10/2019 22:20 11.7 64 0.0 0 0.0 0.1 0.2 54
10/10/2019 22:30 11.6 65 0.0 0 0.0 0.3 0.9 23
10/10/2019 22:40 11.2 66 0.0 0 0.0 1.0 3.6 352
10/10/2019 22:50 12.0 63 0.0 0 0.0 0.4 1.3 324
10/10/2019 23:00 12.0 63 0.0 0 0.0 0.1 0.4 345
10/10/2019 23:10 11.9 63 0.0 0 0.0 0.1 0.2 349
10/10/2019 23:20 11.8 64 0.0 0 0.0 0.3 1.1 334
10/10/2019 23:30 11.7 63 0.0 0 0.0 0.1 0.5 116
10/10/2019 23:40 12.0 62 0.0 0 0.0 0.4 1.4 126
10/10/2019 23:50 11.2 65 0.0 0 0.0 0.7 2.4 133
Anterior Página 1 de 1 Siguiente

NOTA: Tipo de datos según el color:
   - Valores diarios o 10 minutos correctos
   - Valores diarios calculados a partir de un número de datos 10 minutos menor que 144 y mayor que 120, o de un número de datos semihorarios menor que 48 y mayor que 40 (caso de las estaciones de Riegos de Navarra y del MARM)
   - Valores diez minutos estimados


Contacto        Enlaces        Aviso legal